Bacliff, Texas
Current Conditions -  °F | °C
As of 6:50 AM on Thursday 30 Oct 2014 (Local Time) from KEFD Reporting Station
Few Clouds Few Clouds  
Wind Chill: 63°   Ceiling: Unl
Heat Index: 63°   Visibility: 10mi
Dew Point: 55°   Wind: 5mph
Humidity: 77%   Direction: 40°NE
Pressure: 30.11"   Gusts: NA
Location:  29.51°N, 94.99°W
Report Text: KEFD 301150Z 04004KT 10SM FEW250 17/13 A3011
Loading
Personal Weather Stations






























Interactive Weather Map New forecast layout! Learn more

10-Day Weather Forecast

Advertisements
Track Severe Weather on mobile